createdAt,value
2018-09-17T00:00:47.129Z,97895.59
2018-09-17T00:03:17.384Z,97893.90
2018-09-17T00:05:47.411Z,97905.24
2018-09-17T00:08:17.421Z,97903.55
2018-09-17T00:10:47.186Z,97902.70
2018-09-17T00:13:16.830Z,97905.22
2018-09-17T00:15:46.652Z,97898.95
2018-09-17T00:18:16.111Z,97898.14
2018-09-17T00:20:45.764Z,97900.00
2018-09-17T00:23:15.397Z,97897.95
2018-09-17T00:25:45.165Z,97903.38
2018-09-17T00:28:15.018Z,97898.46
2018-09-17T00:30:44.702Z,97895.56
2018-09-17T00:33:14.433Z,97890.66
2018-09-17T00:35:44.904Z,97893.88
2018-09-17T00:38:15.083Z,97892.17
2018-09-17T00:40:44.737Z,97899.14
2018-09-17T00:43:14.404Z,97899.64
2018-09-17T00:45:44.073Z,97894.39
2018-09-17T00:48:13.658Z,97897.77
2018-09-17T00:50:43.204Z,97899.11
2018-09-17T00:53:12.784Z,97900.94
2018-09-17T00:55:42.435Z,97903.30
2018-09-17T00:58:13.034Z,97901.95
2018-09-17T01:00:42.741Z,97897.70
2018-09-17T01:03:12.216Z,97904.48
2018-09-17T01:05:41.842Z,97903.82
2018-09-17T01:08:11.657Z,97907.03
2018-09-17T01:10:41.218Z,97908.04
2018-09-17T01:13:11.001Z,97917.17
2018-09-17T01:15:40.398Z,97925.30
2018-09-17T01:18:10.580Z,97923.60
2018-09-17T01:20:40.474Z,97924.11
2018-09-17T01:23:09.957Z,97921.91
2018-09-17T01:25:39.821Z,97919.86
2018-09-17T01:28:09.381Z,97923.58
2018-09-17T01:30:39.934Z,97920.86
2018-09-17T01:33:09.552Z,97919.20
2018-09-17T01:35:39.150Z,97917.00
2018-09-17T01:38:08.704Z,97922.06
2018-09-17T01:40:38.769Z,97920.02
2018-09-17T01:43:08.296Z,97916.47
2018-09-17T01:45:37.879Z,97921.53
2018-09-17T01:48:07.597Z,97917.47
2018-09-17T01:50:37.747Z,97922.55
2018-09-17T01:53:07.294Z,97925.75
2018-09-17T01:55:37.076Z,97924.56
2018-09-17T01:58:06.752Z,97923.74
2018-09-17T02:00:36.326Z,97926.77
2018-09-17T02:03:05.973Z,97913.92
2018-09-17T02:05:35.557Z,97908.16
2018-09-17T02:08:05.782Z,97904.26
2018-09-17T02:10:35.421Z,97901.55
2018-09-17T02:13:04.937Z,97903.41
2018-09-17T02:15:34.596Z,97907.13
2018-09-17T02:18:04.234Z,97907.63
2018-09-17T02:20:33.831Z,97904.58
2018-09-17T02:23:03.582Z,97900.86
2018-09-17T02:25:33.256Z,97889.53
2018-09-17T02:28:02.877Z,97886.28
2018-09-17T02:30:33.103Z,97889.00
2018-09-17T02:33:03.480Z,97891.39
2018-09-17T02:35:33.195Z,97885.62
2018-09-17T02:38:03.790Z,97876.66
2018-09-17T02:40:34.225Z,97869.05
2018-09-17T02:43:03.700Z,97875.12
2018-09-17T02:45:33.239Z,97878.84
2018-09-17T02:48:03.430Z,97880.53
2018-09-17T02:50:33.296Z,97884.25
2018-09-17T02:53:03.901Z,97882.55
2018-09-17T02:55:34.033Z,97885.41
2018-09-17T02:58:06.097Z,97890.33
2018-09-17T03:00:37.078Z,97895.39
2018-09-17T03:03:06.977Z,97896.75
2018-09-17T03:05:37.645Z,97895.08
2018-09-17T03:08:07.305Z,97896.09
2018-09-17T03:10:37.777Z,97892.03
2018-09-17T03:13:07.364Z,97887.12
2018-09-17T03:15:50.689Z,97878.15
2018-09-17T03:18:33.116Z,97882.71
2018-09-17T03:21:03.761Z,97887.78
2018-09-17T03:23:37.647Z,97893.19
2018-09-17T03:26:07.400Z,97890.64
2018-09-17T03:28:38.143Z,97894.70
2018-09-17T03:31:08.490Z,97904.18
2018-09-17T03:33:38.991Z,97908.74
2018-09-17T03:36:09.317Z,97912.11
2018-09-17T03:38:42.178Z,97917.02
2018-09-17T03:41:12.813Z,97906.70
2018-09-17T03:43:44.183Z,97908.23
2018-09-17T03:46:13.840Z,97908.23
2018-09-17T03:48:43.634Z,97910.09
2018-09-17T03:51:14.363Z,97906.53
2018-09-17T03:53:44.278Z,97907.55
2018-09-17T03:56:14.948Z,97909.75
2018-09-17T03:58:45.525Z,97904.49
2018-09-17T04:01:15.308Z,97903.14
2018-09-17T04:03:45.082Z,97904.49
2018-09-17T04:06:15.393Z,97901.44
2018-09-17T04:08:45.801Z,97900.09
2018-09-17T04:11:15.833Z,97904.65
2018-09-17T04:13:45.557Z,97900.59
2018-09-17T04:16:15.833Z,97901.59
2018-09-17T04:18:45.423Z,97908.87
2018-09-17T04:21:15.170Z,97911.57
2018-09-17T04:23:44.699Z,97909.38
2018-09-17T04:26:15.727Z,97908.52
2018-09-17T04:28:45.389Z,97911.23
2018-09-17T04:31:16.069Z,97908.17
2018-09-17T04:33:45.724Z,97914.44
2018-09-17T04:36:16.618Z,97914.13
2018-09-17T04:38:48.305Z,97918.18
2018-09-17T04:41:22.797Z,97921.05
2018-09-17T04:43:53.367Z,97933.22
2018-09-17T04:46:25.737Z,97922.39
2018-09-17T04:48:56.843Z,97909.37
2018-09-17T04:51:28.135Z,97915.28
2018-09-17T04:53:57.967Z,97912.23
2018-09-17T04:56:28.071Z,97910.88
2018-09-17T04:58:58.081Z,97905.63
2018-09-17T05:01:29.309Z,97906.47
2018-09-17T05:03:59.140Z,97905.63
2018-09-17T05:06:29.061Z,97911.53
2018-09-17T05:08:58.962Z,97912.55
2018-09-17T05:11:29.169Z,97911.19
2018-09-17T05:13:58.906Z,97914.40
2018-09-17T05:16:29.463Z,97915.91
2018-09-17T05:19:01.209Z,97919.97
2018-09-17T05:21:32.462Z,97922.67
2018-09-17T05:24:02.189Z,97925.91
2018-09-17T05:26:32.169Z,97926.07
2018-09-17T05:29:02.816Z,97921.32
2018-09-17T05:31:32.465Z,97928.62
2018-09-17T05:34:03.323Z,97929.13
2018-09-17T05:36:33.205Z,97924.21
2018-09-17T05:39:03.884Z,97924.21
2018-09-17T05:41:33.717Z,97925.72
2018-09-17T05:44:03.437Z,97922.17
2018-09-17T05:46:33.402Z,97925.72
2018-09-17T05:49:03.199Z,97923.67
2018-09-17T05:51:32.725Z,97921.47
2018-09-17T05:54:03.372Z,97926.38
2018-09-17T05:56:34.192Z,97929.59
2018-09-17T05:59:04.258Z,97924.33
2018-09-17T06:01:35.253Z,97931.09
2018-09-17T06:04:05.006Z,97932.10
2018-09-17T06:06:35.037Z,97937.01
2018-09-17T06:09:07.925Z,97936.16
2018-09-17T06:11:37.999Z,97939.71
2018-09-17T06:14:09.484Z,97938.02
2018-09-17T06:16:39.310Z,97939.88
2018-09-17T06:19:09.423Z,97944.78
2018-09-17T06:21:40.279Z,97943.11
2018-09-17T06:24:10.137Z,97946.13
2018-09-17T06:26:40.351Z,97944.97
2018-09-17T06:29:11.210Z,97940.72
2018-09-17T06:31:40.967Z,97938.86
2018-09-17T06:34:11.489Z,97938.36
2018-09-17T06:36:41.697Z,97945.63
2018-09-17T06:39:11.829Z,97953.23
2018-09-17T06:41:42.735Z,97963.21
2018-09-17T06:44:12.905Z,97962.20
2018-09-17T06:46:42.919Z,97965.77
2018-09-17T06:49:12.703Z,97968.81
2018-09-17T06:51:42.894Z,97966.61
2018-09-17T06:54:14.982Z,97967.46
2018-09-17T06:56:47.138Z,97973.72
2018-09-17T06:59:17.621Z,97979.14
2018-09-17T07:01:47.582Z,97981.19
2018-09-17T07:04:17.837Z,97974.42
2018-09-17T07:06:48.086Z,97974.92
2018-09-17T07:09:17.973Z,97979.33
2018-09-17T07:11:48.013Z,97979.17
2018-09-17T07:14:17.785Z,97976.47
2018-09-17T07:16:48.534Z,97976.78
2018-09-17T07:19:18.319Z,97975.43
2018-09-17T07:21:48.324Z,97988.30
2018-09-17T07:24:18.442Z,97987.30
2018-09-17T07:26:48.467Z,97982.73
2018-09-17T07:29:18.485Z,97980.88
2018-09-17T07:31:48.881Z,97975.97
2018-09-17T07:34:18.590Z,97981.73
2018-09-17T07:36:49.388Z,97978.52
2018-09-17T07:39:20.211Z,97976.52
2018-09-17T07:41:51.443Z,97975.51
2018-09-17T07:44:22.292Z,97976.17
2018-09-17T07:46:51.977Z,97973.81
2018-09-17T07:49:22.750Z,97965.70
2018-09-17T07:51:53.366Z,97963.34
2018-09-17T07:54:23.090Z,97962.83
2018-09-17T07:56:54.278Z,97954.56
2018-09-17T07:59:24.048Z,97949.84
2018-09-17T08:01:54.666Z,97945.28
2018-09-17T08:04:25.075Z,97948.14
2018-09-17T08:06:55.982Z,97943.58
2018-09-17T08:09:26.576Z,97943.08
2018-09-17T08:11:56.944Z,97948.68
2018-09-17T08:14:27.123Z,97948.68
2018-09-17T08:16:56.834Z,97953.09
2018-09-17T08:19:28.086Z,97961.40
2018-09-17T08:21:59.192Z,97957.33
2018-09-17T08:24:29.577Z,97964.27
2018-09-17T08:27:00.806Z,97966.47
2018-09-17T08:29:31.819Z,97965.96
2018-09-17T08:32:01.928Z,97966.16
2018-09-17T08:34:31.766Z,97969.20
2018-09-17T08:37:02.492Z,97970.91
2018-09-17T08:39:32.599Z,97967.50
2018-09-17T08:42:03.347Z,97964.64
2018-09-17T08:44:34.137Z,97960.27
2018-09-17T08:47:04.709Z,97959.77
2018-09-17T08:49:34.482Z,97962.81
2018-09-17T08:52:04.285Z,97959.10
2018-09-17T08:54:38.346Z,97958.59
2018-09-17T08:57:13.021Z,97952.48
2018-09-17T08:59:52.230Z,97950.63
2018-09-17T09:02:27.092Z,97941.84
2018-09-17T09:04:59.562Z,97939.83
2018-09-17T09:07:40.189Z,97937.97
2018-09-17T09:10:18.920Z,97931.04
2018-09-17T09:12:54.444Z,97929.19
2018-09-17T09:15:28.108Z,97937.12
2018-09-17T09:17:59.750Z,97938.31
2018-09-17T09:20:29.530Z,97932.39
2018-09-17T09:23:00.313Z,97932.23
2018-09-17T09:25:30.613Z,97943.75
2018-09-17T09:28:01.787Z,97942.23
2018-09-17T09:30:32.122Z,97947.31
2018-09-17T09:33:02.138Z,97956.98
2018-09-17T09:35:32.321Z,97957.29
2018-09-17T09:38:02.514Z,97952.72
2018-09-17T09:40:37.409Z,97946.80
2018-09-17T09:43:08.298Z,97943.43
2018-09-17T09:45:38.460Z,97943.81
2018-09-17T09:48:08.793Z,97943.14
2018-09-17T09:50:39.484Z,97935.87
2018-09-17T09:53:10.110Z,97938.41
2018-09-17T09:55:42.317Z,97931.45
2018-09-17T09:58:12.421Z,97927.23
2018-09-17T10:00:48.085Z,97919.45
2018-09-17T10:03:22.825Z,97922.50
2018-09-17T10:05:55.332Z,97920.98
2018-09-17T10:08:25.233Z,97914.20
2018-09-17T10:11:01.469Z,97917.61
2018-09-17T10:13:38.026Z,97917.92
2018-09-17T10:16:13.201Z,97916.91
2018-09-17T10:18:48.898Z,97912.34
2018-09-17T10:21:18.793Z,97910.48
2018-09-17T10:23:49.449Z,97904.90
2018-09-17T10:26:20.313Z,97903.89
2018-09-17T10:28:54.165Z,97905.59
2018-09-17T10:31:25.130Z,97900.00
2018-09-17T10:33:55.558Z,97902.21
2018-09-17T10:36:25.909Z,97900.00
2018-09-17T10:38:56.252Z,97902.36
2018-09-17T10:41:28.373Z,97901.34
2018-09-17T10:43:58.389Z,97898.64
2018-09-17T10:46:29.517Z,97896.27
2018-09-17T10:48:59.488Z,97905.09
2018-09-17T10:51:30.256Z,97903.06
2018-09-17T10:54:01.362Z,97905.27
2018-09-17T10:56:31.016Z,97901.19
2018-09-17T10:59:02.378Z,97899.33
2018-09-17T11:01:32.512Z,97890.19
2018-09-17T11:04:05.870Z,97895.27
2018-09-17T11:06:38.668Z,97892.05
2018-09-17T11:09:17.736Z,97893.75
2018-09-17T11:11:49.461Z,97890.37
2018-09-17T11:14:22.026Z,97890.70
2018-09-17T11:16:53.317Z,97884.09
2018-09-17T11:19:23.157Z,97878.52
2018-09-17T11:21:53.614Z,97881.56
2018-09-17T11:24:24.839Z,97878.31
2018-09-17T11:26:55.426Z,97874.94
2018-09-17T11:29:31.929Z,97877.48
2018-09-17T11:32:02.321Z,97876.47
2018-09-17T11:34:33.126Z,97871.90
2018-09-17T11:37:03.072Z,97871.73
2018-09-17T11:39:34.463Z,97868.01
2018-09-17T11:42:08.208Z,97865.64
2018-09-17T11:44:39.139Z,97865.64
2018-09-17T11:47:09.961Z,97864.09
2018-09-17T11:49:40.577Z,97875.11
2018-09-17T11:52:10.709Z,97858.84
2018-09-17T11:54:42.717Z,97854.27
2018-09-17T11:57:13.279Z,97857.32
2018-09-17T11:59:43.443Z,97859.52
2018-09-17T12:04:21.727Z,97854.45
2018-09-17T12:06:57.335Z,97845.30
2018-09-17T12:09:31.548Z,97840.73
2018-09-17T12:12:03.471Z,97843.07
2018-09-17T12:14:33.864Z,97835.79
2018-09-17T12:17:04.740Z,97838.84
2018-09-17T12:19:36.058Z,97832.06
2018-09-17T12:22:19.261Z,97834.44
2018-09-17T12:24:49.802Z,97836.13
2018-09-17T12:27:19.465Z,97835.29
2018-09-17T12:29:49.426Z,97832.38
2018-09-17T12:32:19.363Z,97828.84
2018-09-17T12:34:49.582Z,97827.80
2018-09-17T12:37:19.821Z,97818.99
2018-09-17T12:39:49.803Z,97820.69
2018-09-17T12:42:20.161Z,97826.96
2018-09-17T12:44:51.389Z,97824.08
2018-09-17T12:47:22.684Z,97821.53
2018-09-17T12:49:53.354Z,97826.28
2018-09-17T12:52:23.889Z,97822.56
2018-09-17T12:56:24.459Z,97812.05
2018-09-17T12:58:56.216Z,97806.77
2018-09-17T13:01:26.065Z,97802.19
2018-09-17T13:03:57.308Z,97798.97
2018-09-17T13:06:29.199Z,97805.08
2018-09-17T13:09:00.851Z,97799.48
2018-09-17T13:11:30.812Z,97797.63
2018-09-17T13:14:02.178Z,97797.63
2018-09-17T13:16:31.928Z,97798.80
2018-09-17T13:19:02.718Z,97789.31
2018-09-17T13:21:33.037Z,97794.88
2018-09-17T13:24:03.721Z,97788.61
2018-09-17T13:26:34.639Z,97782.67
2018-09-17T13:29:07.395Z,97778.94
2018-09-17T13:31:37.508Z,97775.72
2018-09-17T13:34:07.583Z,97775.72
2018-09-17T13:36:38.246Z,97778.27
2018-09-17T13:39:09.192Z,97769.28
2018-09-17T13:41:39.610Z,97769.11
2018-09-17T13:44:09.515Z,97770.30
2018-09-17T13:46:39.736Z,97770.30
2018-09-17T13:49:10.205Z,97769.78
2018-09-17T13:51:39.863Z,97766.09
2018-09-17T13:54:10.634Z,97764.20
2018-09-17T13:56:41.857Z,97758.59
2018-09-17T13:59:14.008Z,97752.84
2018-09-17T14:01:47.624Z,97758.59
2018-09-17T14:04:19.376Z,97755.04
2018-09-17T14:06:49.283Z,97754.02
2018-09-17T14:09:19.317Z,97752.16
2018-09-17T14:11:50.043Z,97753.34
2018-09-17T14:14:20.091Z,97752.49
2018-09-17T14:16:51.561Z,97749.95
2018-09-17T14:19:21.292Z,97740.96
2018-09-17T14:21:50.907Z,97740.11
2018-09-17T14:24:21.846Z,97738.25
2018-09-17T14:26:52.432Z,97736.55
2018-09-17T14:29:23.166Z,97735.53
2018-09-17T14:31:58.317Z,97734.01
2018-09-17T14:34:31.736Z,97725.20
2018-09-17T14:37:02.294Z,97724.85
2018-09-17T14:39:34.445Z,97721.30
2018-09-17T14:42:05.405Z,97718.92
2018-09-17T14:44:41.431Z,97718.92
2018-09-17T14:47:13.723Z,97716.71
2018-09-17T14:49:45.346Z,97712.44
2018-09-17T14:52:22.028Z,97708.06
2018-09-17T14:55:09.145Z,97702.95
2018-09-17T14:57:43.769Z,97697.86
2018-09-17T15:00:14.262Z,97702.09
2018-09-17T15:02:44.519Z,97694.50
2018-09-17T15:05:21.246Z,97689.72
2018-09-17T15:07:52.820Z,97688.36
2018-09-17T15:10:24.658Z,97685.98
2018-09-17T15:12:54.781Z,97683.27
2018-09-17T15:15:25.267Z,97676.31
2018-09-17T15:17:57.082Z,97673.60
2018-09-17T15:20:27.102Z,97670.55
2018-09-17T15:22:56.676Z,97665.47
2018-09-17T15:25:27.397Z,97671.73
2018-09-17T15:27:57.329Z,97672.07
2018-09-17T15:30:29.400Z,97673.94
2018-09-17T15:32:59.374Z,97671.73
2018-09-17T15:35:30.973Z,97669.53
2018-09-17T15:38:05.819Z,97664.95
2018-09-17T15:40:35.930Z,97660.55
2018-09-17T15:43:08.076Z,97662.23
2018-09-17T15:45:39.203Z,97662.75
2018-09-17T15:48:09.402Z,97659.35
2018-09-17T15:50:39.164Z,97660.88
2018-09-17T15:53:08.849Z,97662.23
2018-09-17T15:55:39.378Z,97655.45
2018-09-17T15:58:10.152Z,97647.31
2018-09-17T16:00:39.666Z,97652.23
2018-09-17T16:03:09.826Z,97640.88
2018-09-17T16:05:40.364Z,97644.61
2018-09-17T16:08:10.141Z,97636.80
2018-09-17T16:10:40.253Z,97639.67
2018-09-17T16:13:10.258Z,97635.09
2018-09-17T16:15:40.209Z,97635.09
2018-09-17T16:18:10.389Z,97632.89
2018-09-17T16:20:43.346Z,97632.69
2018-09-17T16:23:13.858Z,97631.03
2018-09-17T16:25:43.546Z,97633.41
2018-09-17T16:28:13.417Z,97634.55
2018-09-17T16:30:43.132Z,97635.09
2018-09-17T16:33:13.796Z,97634.25
2018-09-17T16:35:45.331Z,97631.54
2018-09-17T16:38:16.700Z,97632.89
2018-09-17T16:40:47.374Z,97627.98
2018-09-17T16:43:16.897Z,97626.95
2018-09-17T16:45:47.582Z,97625.77
2018-09-17T16:48:17.462Z,97625.27
2018-09-17T16:50:47.753Z,97617.81
2018-09-17T16:53:17.268Z,97622.22
2018-09-17T16:55:47.093Z,97623.23
2018-09-17T16:58:18.126Z,97625.95
2018-09-17T17:00:49.639Z,97626.12
2018-09-17T17:03:20.835Z,97622.56
2018-09-17T17:05:53.394Z,97623.25
2018-09-17T17:08:23.256Z,97623.92
2018-09-17T17:10:53.379Z,97618.50
2018-09-17T17:13:23.725Z,97618.16
2018-09-17T17:15:54.189Z,97614.09
2018-09-17T17:18:26.575Z,97614.27
2018-09-17T17:20:57.778Z,97610.70
2018-09-17T17:23:29.276Z,97618.84
2018-09-17T17:25:59.627Z,97613.11
2018-09-17T17:28:30.566Z,97613.28
2018-09-17T17:31:01.843Z,97615.16
2018-09-17T17:33:32.481Z,97614.64
2018-09-17T17:36:02.442Z,97608.37
2018-09-17T17:38:31.905Z,97610.23
2018-09-17T17:41:02.215Z,97607.02
2018-09-17T17:43:32.001Z,97607.86
2018-09-17T17:46:02.035Z,97604.98
2018-09-17T17:48:33.473Z,97610.92
2018-09-17T17:51:04.092Z,97612.45
2018-09-17T17:53:37.274Z,97603.98
2018-09-17T17:56:08.140Z,97605.17
2018-09-17T17:58:38.366Z,97607.41
2018-09-17T18:01:10.863Z,97601.79
2018-09-17T18:03:41.438Z,97606.05
2018-09-17T18:06:11.221Z,97609.08
2018-09-17T18:08:41.253Z,97605.02
2018-09-17T18:11:12.264Z,97602.81
2018-09-17T18:13:41.882Z,97604.67
2018-09-17T18:16:12.335Z,97601.12
2018-09-17T18:18:42.425Z,97599.77
2018-09-17T18:21:13.802Z,97596.38
2018-09-17T18:23:44.694Z,97598.24
2018-09-17T18:26:16.184Z,97598.41
2018-09-17T18:28:46.025Z,97596.25
2018-09-17T18:31:17.604Z,97605.41
2018-09-17T18:33:47.251Z,97595.23
2018-09-17T18:36:17.053Z,97594.90
2018-09-17T18:38:47.182Z,97596.77
2018-09-17T18:41:17.781Z,97594.23
2018-09-17T18:43:47.605Z,97592.20
2018-09-17T18:46:19.384Z,97595.42
2018-09-17T18:48:49.602Z,97595.62
2018-09-17T18:51:21.195Z,97596.13
2018-09-17T18:53:52.195Z,97590.88
2018-09-17T18:56:23.269Z,97596.98
2018-09-17T18:58:53.406Z,97597.50
2018-09-17T19:01:24.553Z,97598.01
2018-09-17T19:03:56.373Z,97597.67
2018-09-17T19:06:26.918Z,97592.42
2018-09-17T19:08:56.867Z,97593.77
2018-09-17T19:11:26.959Z,97589.58
2018-09-17T19:14:01.518Z,97585.00
2018-09-17T19:16:37.685Z,97587.88
2018-09-17T19:19:10.760Z,97588.39
2018-09-17T19:21:47.986Z,97583.14
2018-09-17T19:24:19.965Z,97581.45
2018-09-17T19:26:52.466Z,97576.54
2018-09-17T19:29:24.205Z,97581.28
2018-09-17T19:31:54.891Z,97584.84
2018-09-17T19:34:25.993Z,97585.89
2018-09-17T19:37:00.025Z,97574.72
2018-09-17T19:39:34.897Z,97580.64
2018-09-17T19:42:06.372Z,97580.30
2018-09-17T19:44:36.400Z,97574.72
2018-09-17T19:47:06.570Z,97576.08
2018-09-17T19:49:37.818Z,97581.16
2018-09-17T19:52:13.829Z,97574.05
2018-09-17T19:54:45.270Z,97575.91
2018-09-17T19:57:22.220Z,97575.91
2018-09-17T19:59:55.282Z,97579.13
2018-09-17T20:02:25.702Z,97577.13
2018-09-17T20:05:02.205Z,97576.28
2018-09-17T20:07:32.442Z,97579.00
2018-09-17T20:10:04.074Z,97575.10
2018-09-17T20:12:34.294Z,97575.61
2018-09-17T20:15:05.262Z,97577.47
2018-09-17T20:17:35.133Z,97579.67
2018-09-17T20:20:05.449Z,97575.78
2018-09-17T20:22:36.405Z,97570.88
2018-09-17T20:25:06.134Z,97574.09
2018-09-17T20:27:37.217Z,97573.75
2018-09-17T20:30:07.124Z,97565.62
2018-09-17T20:32:37.080Z,97563.11
2018-09-17T20:35:07.978Z,97573.41
2018-09-17T20:37:38.093Z,97570.70
2018-09-17T20:40:08.442Z,97571.25
2018-09-17T20:42:38.105Z,97566.84
2018-09-17T20:45:09.153Z,97565.48
2018-09-17T20:47:40.303Z,97565.15
2018-09-17T20:50:11.476Z,97568.37
2018-09-17T20:52:41.429Z,97564.30
2018-09-17T20:55:11.898Z,97562.95
2018-09-17T20:57:42.246Z,97561.25
2018-09-17T21:00:12.736Z,97562.61
2018-09-17T21:02:43.947Z,97560.41
2018-09-17T21:05:13.664Z,97563.63
2018-09-17T21:07:43.577Z,97562.61
2018-09-17T21:10:14.282Z,97562.61
2018-09-17T21:12:46.018Z,97564.48
2018-09-17T21:15:17.076Z,97565.83
2018-09-17T21:17:48.065Z,97562.45
2018-09-17T21:20:18.424Z,97562.78
2018-09-17T21:22:48.430Z,97555.16
2018-09-17T21:25:19.597Z,97555.16
2018-09-17T21:27:49.609Z,97550.77
2018-09-17T21:30:19.245Z,97555.67
2018-09-17T21:32:49.255Z,97555.67
2018-09-17T21:35:19.121Z,97543.65
2018-09-17T21:37:49.256Z,97539.58
2018-09-17T21:40:19.497Z,97549.41
2018-09-17T21:42:49.146Z,97545.00
2018-09-17T21:45:19.810Z,97542.30
2018-09-17T21:47:50.333Z,97541.45
2018-09-17T21:50:20.183Z,97539.58
2018-09-17T21:52:50.111Z,97535.52
2018-09-17T21:55:20.979Z,97530.30
2018-09-17T21:57:50.744Z,97530.81
2018-09-17T22:00:20.487Z,97530.30
2018-09-17T22:02:50.153Z,97533.52
2018-09-17T22:05:19.952Z,97532.17
2018-09-17T22:07:49.617Z,97530.48
2018-09-17T22:10:19.434Z,97526.41
2018-09-17T22:12:51.286Z,97529.13
2018-09-17T22:15:22.477Z,97527.77
2018-09-17T22:17:52.485Z,97526.92
2018-09-17T22:20:22.268Z,97526.58
2018-09-17T22:22:53.977Z,97530.98
2018-09-17T22:25:24.561Z,97519.81
2018-09-17T22:27:54.882Z,97523.53
2018-09-17T22:30:25.245Z,97522.69
2018-09-17T22:32:55.059Z,97522.69
2018-09-17T22:35:25.876Z,97517.27
2018-09-17T22:37:57.693Z,97511.52
2018-09-17T22:40:29.058Z,97511.52
2018-09-17T22:42:58.721Z,97510.67
2018-09-17T22:45:30.141Z,97504.74
2018-09-17T22:48:01.190Z,97501.19
2018-09-17T22:50:31.149Z,97495.43
2018-09-17T22:53:00.742Z,97494.08
2018-09-17T22:55:30.469Z,97498.65
2018-09-17T22:58:00.708Z,97491.88
2018-09-17T23:00:30.382Z,97492.39
2018-09-17T23:03:00.188Z,97485.30
2018-09-17T23:05:30.856Z,97485.30
2018-09-17T23:08:01.980Z,97486.66
2018-09-17T23:10:31.784Z,97487.17
2018-09-17T23:13:01.815Z,97481.75
2018-09-17T23:15:32.653Z,97483.11
2018-09-17T23:18:02.337Z,97481.75
2018-09-17T23:20:32.327Z,97480.40
2018-09-17T23:23:02.654Z,97479.89
2018-09-17T23:25:32.418Z,97476.84
2018-09-17T23:28:02.738Z,97477.69
2018-09-17T23:30:32.729Z,97478.70
2018-09-17T23:33:03.091Z,97479.55
2018-09-17T23:35:32.885Z,97469.22
2018-09-17T23:38:02.493Z,97470.07
2018-09-17T23:40:32.257Z,97471.94
2018-09-17T23:43:02.512Z,97466.52
2018-09-17T23:45:32.189Z,97467.36
2018-09-17T23:48:01.914Z,97458.73
2018-09-17T23:50:31.723Z,97461.09
2018-09-17T23:53:01.376Z,97461.09
2018-09-17T23:55:31.194Z,97459.23
2018-09-17T23:58:01.250Z,97455.67
